Tuesday, January 22, 2019, 4:01 PM EST
Back to Local

KUUU, Newport State Airport

Location: Middletown, RI, United States Lat: 41.533
Local Time: 4:01 PM EST (21:01 GMT) Lon: -71.283
Time Zone: US/Eastern Elev: 170 ft

Show me the last for .
Show Coded

Time T Td Feel RH Dir Speed Gust Alt SLP Vis Weather Sky Remarks
2019-01-22 14:53 25 2 11 36 320° 10 18 30.53 30.53 10 CLR None
2019-01-22 13:53 24 2 8 37 330° 17 26 30.51 30.51 10 CLR None
2019-01-22 12:53 22 2 9 41 320° 14 - 30.50 30.50 10 CLR 6-hr Min Temp (1pm): 10.9°F
6-hr Max Temp (1pm): 23.0°F
2019-01-22 11:53 21 1 4 40 320° 18 26 30.52 30.52 10 CLR None
2019-01-22 10:53 19 0 2 42 320° 14 24 30.52 30.53 10 CLR None
2019-01-22 09:53 16 -2 -4 44 310° 21 29 30.52 30.53 10 CLR Peak wind: 29 mph (26 kts) from 310° at 31 min
2019-01-22 08:53 12 -3 -8 50 310° 17 25 30.50 30.50 10 CLR None
2019-01-22 07:53 12 -3 -10 50 300° 20 31 30.48 30.48 10 CLR Peak wind: 36 mph (32 kts) from 320° at 27 min
2019-01-22 06:53 11 -4 -12 50 310° 18 35 30.42 30.43 10 CLR Peak wind: 34 mph (30 kts) from 320° at 46 min
6-hr Min Temp (7am): 6.1°F
6-hr Max Temp (7am): 12.0°F
2019-01-22 05:53 10 -4 -14 52 320° 24 36 30.37 30.37 10 CLR Peak wind: 35 mph (31 kts) from 300° at 38 min
2019-01-22 04:53 9 -5 -14 51 310° 20 30 30.33 30.34 10 CLR Peak wind: 32 mph (28 kts) from 320° at 13 min
2019-01-22 03:53 8 -7 -16 49 310° 18 33 30.28 30.28 10 CLR Peak wind: 35 mph (31 kts) from 310° at 26 min
2019-01-22 02:53 7 -7 -17 51 310° 20 31 30.25 30.26 10 CLR Peak wind: 31 mph (27 kts) from 310° at 50 min
2019-01-22 01:53 7 -7 -16 51 310° 22 29 30.23 30.24 10 CLR Peak wind: 33 mph (29 kts) from 310° at 43 min
2019-01-22 00:53 6 -8 -17 51 300° 17 29 30.20 30.21 10 CLR Peak wind: 33 mph (29 kts) from 310° at 27 min
6-hr Precip Total (1am): 0.00"
6-hr Min Temp (1am): 5.0°F
6-hr Max Temp (1am): 6.1°F
2019-01-21 23:53 6 -7 -17 53 300° 21 28 30.18 30.19 10 CLR Peak wind: 33 mph (29 kts) from 290° at 43 min
24-hr Min Temp (12am): 1.9°F
24-hr Max Temp (12am): 10.9°F
2019-01-21 22:53 6 -7 -18 53 300° 16 32 30.16 30.17 10 CLR Peak wind: 36 mph (32 kts) from 290° at 26 min
2019-01-21 21:53 6 -6 -19 56 310° 23 36 30.11 30.12 10 CLR Peak wind: 37 mph (33 kts) from 310° at 06 min
6-hr Precip Total (10pm): 0.00"
2019-01-21 20:53 6 -6 -20 56 310° 23 38 30.07 30.08 10 FEW032 BKN055 OVC065 Peak wind: 37 mph (33 kts) from 320° at 50 min
1-hr Precip Total: Trace
2019-01-21 19:53 6 -5 -18 59 310° 18 31 30.03 30.04 10 FEW026 SCT034 OVC043 Peak wind: 35 mph (31 kts) from 290° at 00 min
2019-01-21 18:53 5 -6 -21 59 310° 24 38 30.00 30.00 10 FEW033 OVC042 Peak wind: 37 mph (33 kts) from 290° at 48 min
6-hr Precip Total (7pm): 0.00"
6-hr Min Temp (7pm): 3.9°F
6-hr Max Temp (7pm): 6.1°F
2019-01-21 17:53 5 -7 -21 56 310° 22 37 29.96 29.97 10 FEW032 OVC100 Peak wind: 37 mph (33 kts) from 300° at 42 min
2019-01-21 16:53 4 -8 -22 56 300° 26 37 29.92 29.93 10 SCT034 SCT070 OVC095 Peak wind: 40 mph (35 kts) from 320° at 41 min
2019-01-21 16:04 4 -6 -23 62 320° 22 38 29.89 - 10 SCT026 BKN034 Peak wind: 37 mph (33 kts) from 310° at 58 min

Support USWX by starting your Amazon purchase here.